Time;durP1;ratioP1;P1;durP2;ratioP2;P2;SDS_P1;SDS_P2;PMS_P1;PMS_P2;Temp;Humidity;BMP_temperature;BMP_pressure;BME280_temperature;BME280_humidity;BME280_pressure;Samples;Min_cycle;Max_cycle;Signal;HPM_P1;HPM_P2
2021/05/03 00:00:36;;;;;;;2.87;2.67;;;;;;;18.50;66.71;97711.97;5027373;28;20205;-67
2021/05/03 00:03:02;;;;;;;2.30;2.20;;;;;;;18.90;66.46;97773.16;5008940;28;20271;-68
2021/05/03 00:05:28;;;;;;;2.27;2.17;;;;;;;19.16;66.58;97819.28;4976581;28;20234;-68
2021/05/03 00:07:55;;;;;;;2.30;2.20;;;;;;;18.68;66.48;97737.38;5026477;28;20614;-67
2021/05/03 00:10:21;;;;;;;2.03;1.93;;;;;;;18.80;66.51;97763.38;4992269;28;20221;-68
2021/05/03 00:12:47;;;;;;;2.37;2.17;;;;;;;19.03;66.73;97805.97;4988857;28;20650;-69
2021/05/03 00:15:14;;;;;;;2.20;2.10;;;;;;;18.78;66.65;97765.84;5009401;28;20718;-68
2021/05/03 00:17:40;;;;;;;2.47;2.27;;;;;;;18.88;66.53;97778.16;4992900;28;20309;-68
2021/05/03 00:20:07;;;;;;;2.40;2.20;;;;;;;19.05;66.43;97804.38;4992979;28;20202;-68
2021/05/03 00:22:33;;;;;;;2.43;1.93;;;;;;;19.15;66.63;97824.31;4993052;28;20198;-68
2021/05/03 00:24:59;;;;;;;2.20;2.10;;;;;;;18.80;66.38;97760.81;5026442;28;20646;-67
2021/05/03 00:27:25;;;;;;;2.10;2.00;;;;;;;19.17;66.43;97831.25;4992968;28;20213;-68
2021/05/03 00:29:51;;;;;;;2.17;2.07;;;;;;;17.48;66.46;97536.94;5009217;28;20304;-68
2021/05/03 00:32:18;;;;;;;2.27;2.17;;;;;;;18.88;66.53;97782.38;5009444;28;20197;-68
2021/05/03 00:34:44;;;;;;;2.63;2.20;;;;;;;19.18;66.44;97838.09;5008645;28;20249;-68
2021/05/03 00:37:10;;;;;;;2.30;2.10;;;;;;;19.17;66.29;97831.25;5008089;28;20222;-68
2021/05/03 00:39:37;;;;;;;2.50;2.30;;;;;;;19.16;66.51;97836.28;4989089;28;20200;-68
2021/05/03 00:42:03;;;;;;;2.30;2.20;;;;;;;19.01;66.61;97810.16;5008356;28;20281;-68
2021/05/03 00:44:29;;;;;;;2.30;2.20;;;;;;;19.09;66.42;97824.94;4995532;28;20351;-68
2021/05/03 00:46:58;;;;;;;2.10;2.00;;;;;;;19.02;66.57;97809.31;4992565;28;20595;-68
2021/05/03 00:49:24;;;;;;;2.40;2.20;;;;;;;19.16;66.66;97834.59;4979989;28;20198;-68
2021/05/03 00:51:50;;;;;;;2.30;2.10;;;;;;;18.65;66.63;97744.88;5012258;28;20707;-68
2021/05/03 00:54:17;;;;;;;2.23;2.10;;;;;;;18.33;66.65;97689.13;4979983;28;20287;-68
2021/05/03 00:56:43;;;;;;;2.50;2.30;;;;;;;19.01;66.80;97811.00;5012272;28;20750;-67
2021/05/03 00:59:09;;;;;;;2.23;2.13;;;;;;;18.69;66.74;97749.28;5012098;28;20284;-68
2021/05/03 01:01:35;;;;;;;2.80;2.60;;;;;;;19.16;66.68;97826.09;4978507;28;20249;-68
2021/05/03 01:04:01;;;;;;;2.40;2.23;;;;;;;19.17;66.60;97838.91;5008545;28;20205;-68
2021/05/03 01:06:27;;;;;;;2.10;2.00;;;;;;;18.81;66.49;97800.75;5009987;28;20308;-69
2021/05/03 01:08:53;;;;;;;2.37;2.17;;;;;;;19.16;66.19;97828.63;4995904;28;20292;-70
2021/05/03 01:11:19;;;;;;;2.27;2.07;;;;;;;19.04;66.55;97811.13;5012183;28;20758;-69
2021/05/03 01:13:45;;;;;;;2.27;2.07;;;;;;;19.17;66.71;97835.47;4994889;28;20248;-69
2021/05/03 01:16:11;;;;;;;2.43;2.23;;;;;;;18.91;66.46;97787.59;5011982;28;20248;-71
2021/05/03 01:18:38;;;;;;;2.13;2.03;;;;;;;18.97;66.35;97804.03;4995912;28;20307;-70
2021/05/03 01:21:05;;;;;;;2.20;2.00;;;;;;;18.49;66.59;97740.78;4995560;28;20213;-68
2021/05/03 01:23:31;;;;;;;2.20;2.10;;;;;;;19.05;66.16;97819.66;4995885;28;20201;-66
2021/05/03 01:25:57;;;;;;;2.57;2.37;;;;;;;18.66;66.27;97746.63;4995767;28;20229;-67
2021/05/03 01:28:23;;;;;;;2.77;2.20;;;;;;;18.64;66.39;97744.00;4995703;28;20202;-67
2021/05/03 01:30:49;;;;;;;2.40;2.20;;;;;;;18.89;66.43;97790.09;4979102;28;20233;-68
2021/05/03 01:33:17;;;;;;;2.23;2.13;;;;;;;18.94;66.59;97792.84;4995333;28;20245;-67
2021/05/03 01:35:43;;;;;;;2.13;2.03;;;;;;;18.74;66.70;97760.56;4979327;28;20259;-68
2021/05/03 01:38:10;;;;;;;2.60;2.40;;;;;;;18.96;66.59;97809.06;4995464;28;20272;-68
2021/05/03 01:40:37;;;;;;;2.30;2.10;;;;;;;19.16;66.58;97841.38;4995608;28;20282;-68
2021/05/03 01:43:11;;;;;;;2.40;2.20;;;;;;;19.00;66.39;97816.03;4995207;28;20216;-67
2021/05/03 01:45:38;;;;;;;2.57;2.37;;;;;;;18.94;66.57;97809.00;5011791;28;20625;-68
2021/05/03 01:48:04;;;;;;;2.40;2.20;;;;;;;19.03;66.51;97821.25;5011374;28;20272;-68
2021/05/03 01:50:30;;;;;;;2.27;2.17;;;;;;;18.60;66.80;97751.44;5011566;28;20245;-68
2021/05/03 01:52:57;;;;;;;2.20;2.10;;;;;;;18.81;66.84;97781.25;5010915;28;20629;-68
2021/05/03 01:55:23;;;;;;;1.90;1.80;;;;;;;19.15;66.68;97847.25;5011322;28;20802;-68
2021/05/03 01:57:49;;;;;;;2.10;2.00;;;;;;;19.15;66.66;97860.00;4994564;28;20309;-68
2021/05/03 02:00:16;;;;;;;2.27;2.10;;;;;;;19.15;66.83;97850.69;5011804;28;20392;-67
2021/05/03 02:02:46;;;;;;;1.97;1.87;;;;;;;19.01;66.63;97833.06;5010948;28;20205;-69
2021/05/03 02:05:16;;;;;;;1.93;1.83;;;;;;;19.15;66.77;97853.22;4994799;28;20745;-67
2021/05/03 02:07:43;;;;;;;1.97;1.87;;;;;;;19.02;66.40;97834.81;5011158;28;20309;-69
2021/05/03 02:10:09;;;;;;;2.30;2.20;;;;;;;19.16;66.57;97864.31;4994552;28;20695;-69
2021/05/03 02:12:39;;;;;;;2.00;1.90;;;;;;;19.02;66.62;97839.91;5010854;28;20687;-68
2021/05/03 02:15:07;;;;;;;2.30;2.10;;;;;;;18.68;66.53;97781.50;5009932;28;20572;-69
2021/05/03 02:17:33;;;;;;;2.00;1.90;;;;;;;19.03;66.60;97860.34;5011165;28;20229;-68
2021/05/03 02:19:59;;;;;;;2.00;1.90;;;;;;;19.03;66.52;97844.16;5010838;28;20580;-69
2021/05/03 02:22:26;;;;;;;2.00;1.90;;;;;;;18.70;66.48;97787.56;4994045;28;20687;-68
2021/05/03 02:24:52;;;;;;;2.43;2.23;;;;;;;19.16;66.41;97866.84;4993984;28;20240;-69
2021/05/03 02:27:18;;;;;;;2.30;2.10;;;;;;;19.10;66.48;97861.50;5028184;28;20317;-69
2021/05/03 02:29:44;;;;;;;2.40;2.20;;;;;;;18.95;66.37;97827.72;5010456;28;20950;-68
2021/05/03 02:32:10;;;;;;;2.00;1.90;;;;;;;19.02;66.14;97845.00;4994254;28;20288;-68
2021/05/03 02:34:36;;;;;;;2.40;2.20;;;;;;;19.03;66.48;97842.50;5010489;28;20746;-68
2021/05/03 02:37:02;;;;;;;2.07;1.97;;;;;;;19.02;66.69;97845.88;5010307;28;20252;-69
2021/05/03 02:39:28;;;;;;;2.07;1.97;;;;;;;19.02;66.31;97835.69;5010492;28;20245;-67
2021/05/03 02:41:54;;;;;;;2.17;2.07;;;;;;;19.02;66.67;97834.81;4994088;28;20807;-68
2021/05/03 02:44:20;;;;;;;2.90;2.60;;;;;;;18.69;66.65;97775.63;4993724;28;20683;-67
2021/05/03 02:46:47;;;;;;;2.30;2.20;;;;;;;18.00;66.49;97668.13;4993665;28;20226;-67
2021/05/03 02:49:13;;;;;;;2.10;2.00;;;;;;;19.15;66.47;97863.44;5010118;28;20287;-69
2021/05/03 02:51:39;;;;;;;2.07;1.97;;;;;;;19.14;66.63;97864.25;5027792;28;20241;-68
2021/05/03 02:54:06;;;;;;;2.10;2.00;;;;;;;19.15;66.59;97865.09;4993850;28;20292;-69
2021/05/03 02:56:32;;;;;;;2.07;1.97;;;;;;;18.98;67.17;97835.47;5027007;28;20287;-68
2021/05/03 02:58:58;;;;;;;2.30;2.10;;;;;;;19.01;66.68;97848.34;4993411;28;20639;-68
2021/05/03 03:01:24;;;;;;;2.40;2.20;;;;;;;19.15;66.47;97870.19;4980455;28;20614;-68
2021/05/03 03:03:50;;;;;;;2.37;2.23;;;;;;;19.15;66.82;97871.06;5004736;28;20198;-68
2021/05/03 03:06:16;;;;;;;2.33;2.13;;;;;;;19.01;66.72;97846.66;4989971;28;20331;-69
2021/05/03 03:08:42;;;;;;;2.37;2.20;;;;;;;19.12;66.53;97863.28;4990280;28;20202;-70
2021/05/03 03:11:08;;;;;;;2.00;1.90;;;;;;;19.02;66.42;97845.88;5008110;28;20300;-69
2021/05/03 03:13:34;;;;;;;2.10;2.00;;;;;;;18.75;66.32;97800.47;5005425;28;20688;-69
2021/05/03 03:16:00;;;;;;;2.50;2.30;;;;;;;19.15;66.69;97878.72;5006788;28;20261;-69
2021/05/03 03:18:27;;;;;;;2.20;2.10;;;;;;;17.80;66.38;97658.72;5007791;28;20226;-69
2021/05/03 03:20:53;;;;;;;2.30;2.10;;;;;;;18.63;66.42;97784.66;4990203;28;20297;-67
2021/05/03 03:23:19;;;;;;;2.20;2.10;;;;;;;19.16;66.69;97894.88;5006241;28;20666;-67
2021/05/03 03:25:45;;;;;;;2.37;2.20;;;;;;;19.01;66.33;97854.28;5007415;28;20529;-66
2021/05/03 03:28:11;;;;;;;2.30;2.20;;;;;;;19.02;66.99;97863.69;5006553;28;20264;-68
2021/05/03 03:30:37;;;;;;;2.30;2.20;;;;;;;19.01;66.20;97864.47;4973951;28;20264;-67
2021/05/03 03:33:03;;;;;;;1.97;1.87;;;;;;;19.14;66.65;97893.94;5005946;28;20234;-68
2021/05/03 03:35:29;;;;;;;1.93;1.83;;;;;;;19.13;66.59;97898.16;5007407;28;20300;-67
2021/05/03 03:37:56;;;;;;;2.40;2.20;;;;;;;18.61;66.38;97798.97;4989874;28;20321;-67
2021/05/03 03:40:22;;;;;;;2.00;1.90;;;;;;;17.87;66.66;97692.13;4989854;28;20327;-68
2021/05/03 03:42:48;;;;;;;2.80;2.20;;;;;;;18.98;66.83;97873.69;4973680;28;20284;-67
2021/05/03 03:45:15;;;;;;;2.47;2.27;;;;;;;19.00;66.74;97864.41;5006160;28;20206;-67
2021/05/03 03:47:41;;;;;;;2.20;2.10;;;;;;;18.15;66.78;97727.31;5009073;28;20214;-68
2021/05/03 03:50:08;;;;;;;2.27;2.17;;;;;;;18.73;66.40;97840.25;4993215;28;20228;-68
2021/05/03 03:52:34;;;;;;;2.33;2.20;;;;;;;18.99;66.58;97868.66;5009178;28;20563;-67
2021/05/03 03:55:00;;;;;;;2.20;2.10;;;;;;;19.01;66.73;97868.72;4993036;28;20621;-68
2021/05/03 03:57:27;;;;;;;2.10;2.00;;;;;;;18.94;66.63;97869.25;4992637;28;20299;-68
2021/05/03 03:59:55;;;;;;;1.87;1.77;;;;;;;19.13;66.55;97897.28;5009399;28;20332;-68
2021/05/03 04:02:21;;;;;;;2.17;2.07;;;;;;;18.99;66.59;97881.41;4971588;28;20289;-68
2021/05/03 04:05:16;;;;;;;2.10;2.00;;;;;;;19.13;66.52;97905.78;4954001;28;20269;-68
2021/05/03 04:07:39;;;;;;;2.33;2.13;;;;;;;18.94;66.66;97869.25;4972911;28;20308;-68
2021/05/03 04:26:11;;;;;;;2.10;2.00;;;;;;;19.13;66.71;97930.41;4976618;28;20258;-68
2021/05/03 04:28:42;;;;;;;2.10;2.00;;;;;;;17.72;66.51;97693.06;4974539;28;20723;-68
2021/05/03 04:31:08;;;;;;;2.30;2.10;;;;;;;19.12;66.57;97937.16;4973688;28;20276;-67
2021/05/03 04:33:34;;;;;;;2.37;1.83;;;;;;;18.99;66.23;97913.63;4991120;28;20269;-67
2021/05/03 04:36:01;;;;;;;2.03;1.93;;;;;;;18.43;66.61;97821.06;4957536;28;20227;-68
2021/05/03 04:38:27;;;;;;;2.20;2.10;;;;;;;19.04;66.60;97932.53;4980423;28;20222;-67
2021/05/03 04:40:53;;;;;;;3.73;2.37;;;;;;;18.72;66.04;97876.72;4981938;28;20234;-67
2021/05/03 04:43:19;;;;;;;2.60;2.40;;;;;;;19.11;66.56;97954.94;4985215;28;20840;-67
2021/05/03 04:45:45;;;;;;;2.50;2.30;;;;;;;18.99;66.56;97921.25;4998823;28;20300;-66
2021/05/03 04:48:12;;;;;;;2.40;2.20;;;;;;;18.98;66.60;97930.56;4981527;28;20664;-67
2021/05/03 04:50:38;;;;;;;2.40;2.20;;;;;;;19.11;66.61;97949.84;4990278;28;20203;-67
2021/05/03 04:53:04;;;;;;;2.23;2.10;;;;;;;18.68;66.51;97872.31;4966314;28;20459;-67
2021/05/03 04:55:30;;;;;;;2.37;2.27;;;;;;;18.97;66.49;97933.03;4967215;28;20613;-67
2021/05/03 04:57:56;;;;;;;2.07;1.97;;;;;;;18.97;66.62;97939.03;5013671;28;20706;-68
2021/05/03 05:00:23;;;;;;;2.30;2.10;;;;;;;19.03;66.60;97953.69;4993528;28;20266;-67
2021/05/03 05:02:49;;;;;;;2.20;2.10;;;;;;;18.98;66.62;97935.66;5002925;28;20207;-67
2021/05/03 05:05:15;;;;;;;2.33;2.13;;;;;;;19.12;66.79;97972.84;4962753;28;20210;-68
2021/05/03 05:07:41;;;;;;;2.60;2.40;;;;;;;18.73;66.48;97896.28;4994950;28;20936;-69
2021/05/03 05:10:09;;;;;;;2.30;2.10;;;;;;;18.99;66.53;97954.38;4977252;28;20686;-69
2021/05/03 05:12:35;;;;;;;2.40;2.30;;;;;;;19.00;66.57;97957.00;4962993;28;20206;-66
2021/05/03 05:15:02;;;;;;;3.03;2.17;;;;;;;18.75;66.25;97909.97;4975686;28;20234;-69
2021/05/03 05:17:29;;;;;;;2.53;2.33;;;;;;;19.13;66.18;97968.63;4962529;28;20341;-67
2021/05/03 05:19:55;;;;;;;2.17;2.07;;;;;;;19.08;66.83;97977.72;4958189;28;20215;-68
2021/05/03 05:22:21;;;;;;;2.30;2.10;;;;;;;19.06;66.54;97970.00;4990645;28;20791;-67
2021/05/03 05:24:47;;;;;;;3.33;2.23;;;;;;;19.10;66.46;97974.44;4958547;28;20326;-70
2021/05/03 05:27:13;;;;;;;2.40;2.20;;;;;;;19.13;66.37;97982.22;4977093;28;20317;-68
2021/05/03 05:29:40;;;;;;;2.40;2.20;;;;;;;19.04;66.52;97963.13;4976430;28;20210;-75
2021/05/03 05:32:06;;;;;;;2.10;2.00;;;;;;;19.13;66.26;97979.66;4982601;28;20314;-67
2021/05/03 05:34:33;;;;;;;2.60;2.20;;;;;;;19.12;66.22;97983.03;4991707;28;20240;-67
2021/05/03 05:36:59;;;;;;;2.50;2.30;;;;;;;18.83;66.59;97929.00;5009628;28;20234;-72
2021/05/03 05:39:25;;;;;;;6.43;2.50;;;;;;;18.99;66.56;97956.91;5007815;28;20622;-66
2021/05/03 05:41:51;;;;;;;2.30;2.20;;;;;;;19.13;66.30;97989.84;5024748;28;20214;-67
2021/05/03 05:44:17;;;;;;;2.90;2.40;;;;;;;18.60;66.48;97894.88;5009417;28;20309;-66
2021/05/03 05:46:44;;;;;;;3.73;2.30;;;;;;;19.13;66.50;97992.41;5008043;28;20226;-67
2021/05/03 05:49:11;;;;;;;2.57;2.37;;;;;;;18.84;66.57;97941.81;5009604;28;20263;-67
2021/05/03 05:51:38;;;;;;;2.70;2.50;;;;;;;18.60;66.46;97899.94;5007798;28;20302;-66
2021/05/03 05:54:05;;;;;;;2.33;2.23;;;;;;;18.61;66.41;97905.88;5023838;28;20272;-66
2021/05/03 05:56:31;;;;;;;2.40;2.20;;;;;;;19.01;66.62;97975.72;5006568;28;20233;-66
2021/05/03 05:58:57;;;;;;;2.83;2.10;;;;;;;19.01;66.29;97976.56;4965171;28;20219;-67
2021/05/03 06:01:24;;;;;;;4.77;4.37;;;;;;;19.13;65.28;97992.41;4955710;28;20238;-67
2021/05/03 06:03:51;;;;;;;4.67;4.10;;;;;;;19.08;64.38;97986.25;4955860;28;20207;-67
2021/05/03 06:06:17;;;;;;;3.50;3.20;;;;;;;19.15;64.41;98000.13;4989409;28;20258;-66
2021/05/03 06:08:43;;;;;;;4.40;3.57;;;;;;;19.14;64.31;97996.72;4989270;28;20268;-66
2021/05/03 06:11:09;;;;;;;6.67;3.20;;;;;;;19.02;64.87;97978.31;4989275;28;20713;-66
2021/05/03 06:13:35;;;;;;;3.13;2.83;;;;;;;19.15;65.05;98001.00;4971298;28;20210;-66
2021/05/03 06:16:02;;;;;;;3.20;2.90;;;;;;;19.15;65.06;98000.13;4989182;28;20230;-66
2021/05/03 06:18:28;;;;;;;5.73;2.80;;;;;;;19.04;65.13;97983.50;4971570;28;20325;-66
2021/05/03 06:20:54;;;;;;;4.37;2.70;;;;;;;19.14;65.26;98006.91;4971603;28;20739;-66
2021/05/03 06:23:20;;;;;;;4.40;2.77;;;;;;;19.15;65.88;98007.75;4983614;28;20261;-66
2021/05/03 06:25:46;;;;;;;3.10;2.80;;;;;;;19.04;65.24;97983.50;4990862;28;20642;-66
2021/05/03 06:28:12;;;;;;;2.80;2.60;;;;;;;19.00;65.13;97990.09;4989244;28;20220;-65
2021/05/03 06:30:39;;;;;;;4.17;2.87;;;;;;;19.14;64.96;98014.56;4942550;28;20206;-67
2021/05/03 06:33:05;;;;;;;2.50;2.30;;;;;;;18.98;65.37;97995.94;4988482;28;20293;-66
2021/05/03 06:35:32;;;;;;;2.83;2.60;;;;;;;19.13;65.43;98025.53;4955334;28;20212;-66
2021/05/03 06:37:58;;;;;;;2.70;2.50;;;;;;;18.62;65.41;97931.41;4971057;28;20222;-66
2021/05/03 06:40:24;;;;;;;3.10;2.80;;;;;;;19.13;65.69;98027.22;4970794;28;20295;-66
2021/05/03 06:42:50;;;;;;;2.83;2.63;;;;;;;19.00;65.29;98005.38;4970703;28;20692;-66
2021/05/03 06:45:18;;;;;;;2.53;2.37;;;;;;;19.00;65.78;97994.31;4971232;28;20669;-66
2021/05/03 06:47:45;;;;;;;4.00;2.73;;;;;;;19.01;65.69;97988.44;4971659;28;20773;-66
2021/05/03 06:50:12;;;;;;;3.67;2.90;;;;;;;18.85;65.66;97973.22;4955573;28;20290;-66
2021/05/03 06:52:44;;;;;;;2.87;2.67;;;;;;;19.11;65.68;98023.72;4964046;28;20256;-66
2021/05/03 06:55:14;;;;;;;2.60;2.40;;;;;;;19.01;65.41;97999.47;4983394;28;20202;-66
2021/05/03 06:57:40;;;;;;;2.47;2.30;;;;;;;18.77;65.56;97961.84;4988183;28;20331;-68
2021/05/03 07:00:07;;;;;;;2.83;2.63;;;;;;;19.00;65.73;98007.06;4993606;28;20209;-66
2021/05/03 07:02:33;;;;;;;2.50;2.30;;;;;;;19.01;65.77;98008.81;4993791;28;20633;-66
2021/05/03 07:04:59;;;;;;;2.67;2.47;;;;;;;19.00;65.67;98007.06;4993661;28;20263;-66
2021/05/03 07:07:25;;;;;;;2.70;2.50;;;;;;;18.99;65.53;98013.84;4993218;28;20670;-67
2021/05/03 07:09:52;;;;;;;2.70;2.50;;;;;;;18.97;65.55;98002.69;5010174;28;20251;-67
2021/05/03 07:12:23;;;;;;;2.50;2.30;;;;;;;19.14;65.82;98034.06;4993318;28;20255;-66
2021/05/03 07:14:49;;;;;;;2.50;2.30;;;;;;;19.14;65.67;98036.59;5027294;28;20608;-67
2021/05/03 07:17:16;;;;;;;2.40;2.20;;;;;;;19.00;65.58;98015.56;5010068;28;20283;-64
2021/05/03 07:19:43;;;;;;;2.83;2.60;;;;;;;18.99;65.73;98008.75;4994021;28;20263;-66
2021/05/03 07:22:10;;;;;;;2.60;2.40;;;;;;;19.01;65.84;98011.38;4994012;28;20271;-66
2021/05/03 07:24:37;;;;;;;2.53;2.33;;;;;;;18.62;65.54;97949.22;4993784;28;20216;-66
2021/05/03 07:27:05;;;;;;;2.30;2.20;;;;;;;19.13;65.48;98042.50;5009710;28;20229;-67
2021/05/03 07:29:31;;;;;;;1.93;1.83;;;;;;;19.13;65.54;98037.41;5009394;28;20695;-66
2021/05/03 07:31:58;;;;;;;2.10;2.00;;;;;;;19.13;65.68;98045.06;5009875;28;20260;-66
2021/05/03 07:34:24;;;;;;;2.87;2.67;;;;;;;19.11;65.75;98039.00;5027310;28;20201;-65
2021/05/03 07:36:50;;;;;;;2.60;2.40;;;;;;;18.72;65.79;97970.91;4989019;28;20668;-66
2021/05/03 07:39:16;;;;;;;2.30;2.10;;;;;;;19.10;65.98;98039.81;4970558;28;20309;-66
2021/05/03 07:41:42;;;;;;;6.07;3.53;;;;;;;19.00;64.52;98023.22;4970171;28;20214;-66
2021/05/03 07:44:09;;;;;;;5.97;5.47;;;;;;;19.00;59.15;98018.13;4954078;28;20837;-66
2021/05/03 07:46:35;;;;;;;5.83;5.33;;;;;;;19.11;57.48;98041.56;4954210;28;20317;-66
2021/05/03 07:49:02;;;;;;;5.63;5.13;;;;;;;19.09;57.56;98032.94;4987914;28;20290;-66
2021/05/03 07:51:28;;;;;;;5.90;5.30;;;;;;;19.00;58.39;98022.34;4954235;28;20241;-66
2021/05/03 07:53:54;;;;;;;5.10;4.70;;;;;;;18.97;59.11;98020.53;4973804;28;20297;-66
2021/05/03 07:56:21;;;;;;;8.90;4.37;;;;;;;18.91;60.01;98001.53;4957797;28;20293;-66
2021/05/03 07:58:47;;;;;;;4.90;4.40;;;;;;;15.76;60.44;97469.28;4973945;28;20221;-65
2021/05/03 08:01:13;;;;;;;4.27;3.87;;;;;;;19.11;61.07;98046.66;4996165;28;20251;-66
2021/05/03 08:03:41;;;;;;;4.60;4.20;;;;;;;18.76;61.55;97988.06;5012784;28;20570;-66
2021/05/03 08:06:12;;;;;;;4.20;3.80;;;;;;;18.89;61.82;98004.00;4997431;28;20229;-66
2021/05/03 08:08:38;;;;;;;3.80;3.50;;;;;;;19.00;62.25;98025.75;4981297;28;20695;-65
2021/05/03 08:11:04;;;;;;;3.77;3.43;;;;;;;19.00;62.41;98022.34;5012836;28;20209;-66
2021/05/03 08:13:30;;;;;;;3.90;3.60;;;;;;;18.99;62.77;98023.16;4996150;28;20623;-66
2021/05/03 08:15:59;;;;;;;3.70;3.23;;;;;;;18.98;62.74;98017.16;5012855;28;20392;-66
2021/05/03 08:18:25;;;;;;;3.50;3.30;;;;;;;19.13;63.12;98047.59;5013257;28;20235;-66
2021/05/03 08:20:54;;;;;;;3.37;3.07;;;;;;;18.99;63.08;98023.16;4996973;28;20205;-67
2021/05/03 08:23:21;;;;;;;3.43;3.13;;;;;;;19.12;63.13;98046.72;5012499;28;20295;-66
2021/05/03 08:25:48;;;;;;;3.63;3.33;;;;;;;18.66;63.24;97966.41;5012410;28;20311;-66
2021/05/03 08:28:15;;;;;;;3.10;2.90;;;;;;;19.12;63.16;98048.38;4996489;28;20198;-65
2021/05/03 08:30:41;;;;;;;3.60;3.30;;;;;;;19.10;63.25;98039.81;4996590;28;20209;-66
2021/05/03 08:33:07;;;;;;;3.43;3.13;;;;;;;18.99;63.23;98025.69;5012221;28;20259;-66
2021/05/03 08:35:33;;;;;;;3.10;2.90;;;;;;;19.05;63.58;98029.41;4980306;28;20210;-66
2021/05/03 08:38:00;;;;;;;3.27;3.07;;;;;;;19.12;63.25;98050.94;5012272;28;20257;-66
2021/05/03 08:40:27;;;;;;;3.50;3.03;;;;;;;19.12;63.44;98046.72;5012189;28;20320;-66
2021/05/03 08:42:54;;;;;;;3.13;2.93;;;;;;;19.11;63.54;98047.53;5012000;28;20212;-66
2021/05/03 08:45:20;;;;;;;2.90;2.70;;;;;;;19.00;63.20;98017.25;5012545;28;20448;-66
2021/05/03 08:48:24;;;;;;;2.93;2.73;;;;;;;19.12;63.75;98045.84;5012518;28;20229;-67
2021/05/03 08:53:24;;;;;;;2.90;2.70;;;;;;;19.11;63.91;98037.34;5014069;28;20646;-66
2021/05/03 08:55:50;;;;;;;2.97;2.67;;;;;;;19.13;63.67;98037.41;5012523;28;20722;-66
2021/05/03 08:58:16;;;;;;;2.80;2.60;;;;;;;19.12;64.25;98035.66;5012243;28;20387;-66
2021/05/03 09:00:46;;;;;;;2.80;2.60;;;;;;;19.12;63.75;98028.00;5029447;28;20209;-65
2021/05/03 09:03:12;;;;;;;2.87;2.67;;;;;;;19.01;64.00;98003.72;5011089;28;20255;-66
2021/05/03 09:05:42;;;;;;;2.60;2.40;;;;;;;19.07;63.82;98011.66;4995854;28;20213;-65
2021/05/03 09:08:21;;;;;;;2.60;2.40;;;;;;;18.76;64.04;97963.50;5012561;28;20585;-65
2021/05/03 09:10:47;;;;;;;3.10;2.80;;;;;;;18.60;63.87;97934.69;5013473;28;20205;-66
2021/05/03 09:13:13;;;;;;;2.93;2.73;;;;;;;19.14;63.59;98026.41;4995225;28;20283;-67
2021/05/03 09:15:40;;;;;;;2.97;2.77;;;;;;;19.08;63.89;98014.28;5012255;28;20206;-66
2021/05/03 09:18:06;;;;;;;2.80;2.60;;;;;;;19.02;63.82;97995.28;5012137;28;20308;-65
2021/05/03 09:20:32;;;;;;;2.80;2.60;;;;;;;19.01;63.76;97985.91;4995577;28;20301;-66
2021/05/03 09:25:55;;;;;;;2.80;2.60;;;;;;;18.90;63.51;97970.13;4990764;28;20706;-65
2021/05/03 09:28:24;;;;;;;3.40;3.07;;;;;;;19.12;62.04;98015.25;4982595;28;20256;-66
2021/05/03 09:30:50;;;;;;;4.67;3.40;;;;;;;19.11;61.42;98013.53;4992538;28;20281;-65
2021/05/03 09:33:19;;;;;;;3.47;3.17;;;;;;;18.71;61.50;97944.56;4992093;28;20203;-66
2021/05/03 09:35:59;;;;;;;3.37;3.07;;;;;;;18.69;61.77;97937.69;4972315;28;20231;-66
2021/05/03 09:38:42;;;;;;;3.07;2.87;;;;;;;19.12;62.34;98017.81;4956935;28;20305;-66
2021/05/03 09:41:27;;;;;;;2.90;2.70;;;;;;;19.11;62.54;98014.41;4958252;28;20246;-64
2021/05/03 09:44:03;;;;;;;3.37;3.07;;;;;;;19.12;63.02;97999.97;4989591;28;20246;-65
2021/05/03 09:46:36;;;;;;;3.10;2.90;;;;;;;19.05;63.22;97995.41;4989535;28;20257;-67
2021/05/03 09:49:11;;;;;;;2.93;2.73;;;;;;;18.59;63.02;97910.06;4989289;28;20202;-66
2021/05/03 09:51:44;;;;;;;3.03;2.83;;;;;;;19.05;63.30;97987.78;4956210;28;20677;-67
2021/05/03 09:54:20;;;;;;;2.83;2.63;;;;;;;19.11;63.25;98003.34;4956688;28;20234;-67
2021/05/03 09:57:04;;;;;;;2.80;2.60;;;;;;;18.99;62.89;97978.19;4979862;28;20831;-65
2021/05/03 09:59:49;;;;;;;3.00;2.80;;;;;;;18.89;62.49;97962.41;4984839;28;20268;-66
2021/05/03 10:02:38;;;;;;;2.87;2.67;;;;;;;18.65;63.03;97929.00;4971857;28;21018;-65
2021/05/03 10:05:24;;;;;;;2.90;2.70;;;;;;;18.82;62.47;97945.06;4977897;28;20243;-66
2021/05/03 10:07:55;;;;;;;2.60;2.40;;;;;;;19.11;63.28;97991.47;4972032;28;20293;-66
2021/05/03 10:12:47;;;;;;;2.70;2.50;;;;;;;18.70;63.40;97921.59;4987632;28;20296;-66
2021/05/03 10:15:15;;;;;;;2.67;2.47;;;;;;;18.64;63.42;97914.56;4971056;28;20242;-66
2021/05/03 10:17:43;;;;;;;2.43;2.23;;;;;;;19.09;63.36;97989.66;4971351;28;20226;-67
2021/05/03 10:20:11;;;;;;;2.97;2.33;;;;;;;18.67;63.58;97913.81;4972083;28;20221;-65
2021/05/03 10:22:37;;;;;;;3.73;2.60;;;;;;;19.06;63.64;97995.47;4971405;28;20755;-66
2021/05/03 10:25:05;;;;;;;2.83;2.63;;;;;;;18.98;63.29;97973.00;4971605;28;20218;-65
2021/05/03 10:27:32;;;;;;;2.60;2.40;;;;;;;18.56;63.27;97903.13;4955751;28;20723;-66
2021/05/03 10:30:08;;;;;;;2.60;2.40;;;;;;;19.11;63.44;98004.22;4964254;28;20254;-66
2021/05/03 10:32:34;;;;;;;2.33;2.20;;;;;;;18.90;63.18;97971.78;4989185;28;20211;-68
2021/05/03 10:35:02;;;;;;;3.27;2.53;;;;;;;19.04;63.31;97991.97;4971605;28;20297;-66
2021/05/03 10:37:28;;;;;;;2.30;2.20;;;;;;;19.11;63.53;98005.88;4971406;28;20262;-68
2021/05/03 10:40:04;;;;;;;2.50;2.30;;;;;;;19.12;63.32;98011.06;4988899;28;20269;-66
2021/05/03 10:42:31;;;;;;;2.40;2.20;;;;;;;19.10;63.32;98005.00;4971077;28;20631;-66
2021/05/03 10:45:17;;;;;;;2.40;2.20;;;;;;;18.72;63.51;97942.91;4988391;28;20768;-66
2021/05/03 10:47:49;;;;;;;2.53;2.33;;;;;;;18.60;63.29;97921.97;4972596;28;20738;-66
2021/05/03 10:50:41;;;;;;;2.60;2.40;;;;;;;19.11;63.41;98016.06;4955365;28;20672;-66
2021/05/03 10:53:20;;;;;;;2.60;2.40;;;;;;;19.11;63.35;98000.78;4988330;28;20211;-65
2021/05/03 10:55:54;;;;;;;2.80;2.33;;;;;;;18.79;63.35;97940.72;4988360;28;20609;-67
2021/05/03 10:58:20;;;;;;;2.40;2.30;;;;;;;19.11;63.05;98000.78;4974165;28;20644;-66
2021/05/03 11:01:16;;;;;;;1.90;1.80;;;;;;;19.11;63.44;97993.16;4974991;28;20302;-66
2021/05/03 11:03:54;;;;;;;2.50;2.30;;;;;;;19.11;63.74;97988.06;5007275;28;20218;-66
2021/05/03 11:06:38;;;;;;;3.30;2.30;;;;;;;19.11;62.59;97982.97;5007543;28;20214;-67
2021/05/03 11:12:05;;;;;;;2.27;2.13;;;;;;;18.61;62.68;97888.97;4991213;28;20238;-66
2021/05/03 11:14:40;;;;;;;1.93;1.83;;;;;;;19.13;62.78;97976.28;4960282;28;20269;-66
2021/05/03 11:17:11;;;;;;;2.43;2.23;;;;;;;19.07;62.78;97961.56;4973903;28;20766;-66
2021/05/03 11:20:18;;;;;;;2.73;2.50;;;;;;;19.15;62.91;97964.44;4981578;28;20214;-66
2021/05/03 11:22:54;;;;;;;2.37;2.27;;;;;;;19.17;63.13;97961.19;4991126;28;20256;-68
2021/05/03 11:25:27;;;;;;;2.30;2.20;;;;;;;19.17;63.04;97955.22;4974504;28;20198;-66
2021/05/03 11:28:01;;;;;;;2.27;2.13;;;;;;;19.15;62.77;97949.16;4974847;28;20278;-65
2021/05/03 11:32:58;;;;;;;2.10;2.00;;;;;;;18.70;62.67;97860.50;4973703;28;20253;-66
2021/05/03 11:38:01;;;;;;;2.47;2.27;;;;;;;19.09;62.59;97914.09;4973883;28;20222;-64
2021/05/03 11:46:34;;;;;;;2.43;2.20;;;;;;;19.30;62.54;97939.72;4963963;28;20637;-65
2021/05/03 11:49:10;;;;;;;2.33;2.17;;;;;;;19.32;62.61;97935.53;4973035;28;20199;-65
2021/05/03 11:51:57;;;;;;;2.40;2.20;;;;;;;19.16;62.50;97907.63;4990829;28;20253;-66
2021/05/03 11:54:26;;;;;;;2.00;1.90;;;;;;;19.34;62.45;97928.84;4974706;28;20206;-65
2021/05/03 11:57:20;;;;;;;2.10;2.00;;;;;;;19.34;62.31;97924.63;4973206;28;20262;-64
2021/05/03 11:59:47;;;;;;;2.10;2.00;;;;;;;19.30;62.27;97917.63;4971480;28;20596;-65
2021/05/03 12:02:14;;;;;;;2.07;1.90;;;;;;;19.37;62.10;97916.25;4993074;28;20225;-66
2021/05/03 12:04:45;;;;;;;2.10;2.00;;;;;;;18.86;62.08;97828.16;5012311;28;20201;-66
2021/05/03 12:07:19;;;;;;;2.20;2.00;;;;;;;19.24;61.93;97891.84;4996243;28;20225;-66
2021/05/03 12:09:45;;;;;;;2.03;1.93;;;;;;;19.39;62.09;97920.59;5013687;28;20228;-66
2021/05/03 12:12:12;;;;;;;2.27;2.07;;;;;;;18.87;61.90;97822.28;4996095;28;20301;-66
2021/05/03 12:14:41;;;;;;;3.57;2.00;;;;;;;19.42;62.01;97914.78;4996047;28;20247;-66
2021/05/03 12:17:21;;;;;;;2.50;2.13;;;;;;;19.35;61.90;97900.88;5012256;28;20306;-66